sensor_id;sensor_type;location;lat;lon;timestamp;P1;durP1;ratioP1;P2;durP2;ratioP2
18166;SDS011;9208;42.688;23.404;2022-11-20T00:01:19;7.37;;;5.57;;
18166;SDS011;9208;42.688;23.404;2022-11-20T00:03:47;8.60;;;5.37;;
18166;SDS011;9208;42.688;23.404;2022-11-20T00:06:14;7.97;;;4.23;;
18166;SDS011;9208;42.688;23.404;2022-11-20T00:08:41;4.97;;;4.43;;
18166;SDS011;9208;42.688;23.404;2022-11-20T00:11:14;6.07;;;4.60;;
18166;SDS011;9208;42.688;23.404;2022-11-20T00:13:46;5.43;;;4.23;;
18166;SDS011;9208;42.688;23.404;2022-11-20T00:16:14;8.27;;;6.83;;
18166;SDS011;9208;42.688;23.404;2022-11-20T00:18:41;10.67;;;7.73;;
18166;SDS011;9208;42.688;23.404;2022-11-20T00:21:10;10.73;;;7.37;;
18166;SDS011;9208;42.688;23.404;2022-11-20T00:23:38;8.70;;;6.80;;
18166;SDS011;9208;42.688;23.404;2022-11-20T00:26:04;9.90;;;7.27;;
18166;SDS011;9208;42.688;23.404;2022-11-20T00:28:31;9.57;;;6.90;;
18166;SDS011;9208;42.688;23.404;2022-11-20T00:31:03;8.47;;;6.90;;
18166;SDS011;9208;42.688;23.404;2022-11-20T00:33:34;8.40;;;6.80;;
18166;SDS011;9208;42.688;23.404;2022-11-20T00:36:00;7.07;;;5.90;;
18166;SDS011;9208;42.688;23.404;2022-11-20T00:38:31;9.43;;;6.13;;
18166;SDS011;9208;42.688;23.404;2022-11-20T00:40:57;7.87;;;5.00;;
18166;SDS011;9208;42.688;23.404;2022-11-20T00:43:24;7.03;;;4.70;;
18166;SDS011;9208;42.688;23.404;2022-11-20T00:45:50;5.37;;;4.10;;
18166;SDS011;9208;42.688;23.404;2022-11-20T00:48:20;4.10;;;3.30;;
18166;SDS011;9208;42.688;23.404;2022-11-20T00:50:46;5.37;;;3.20;;
18166;SDS011;9208;42.688;23.404;2022-11-20T00:53:11;3.97;;;3.20;;
18166;SDS011;9208;42.688;23.404;2022-11-20T00:55:37;3.87;;;3.40;;
18166;SDS011;9208;42.688;23.404;2022-11-20T00:58:02;4.50;;;3.47;;
18166;SDS011;9208;42.688;23.404;2022-11-20T01:00:27;6.10;;;4.60;;
18166;SDS011;9208;42.688;23.404;2022-11-20T01:02:55;5.03;;;4.23;;
18166;SDS011;9208;42.688;23.404;2022-11-20T01:05:20;5.77;;;4.23;;
18166;SDS011;9208;42.688;23.404;2022-11-20T01:07:46;5.17;;;4.60;;
18166;SDS011;9208;42.688;23.404;2022-11-20T01:10:11;7.60;;;4.37;;
18166;SDS011;9208;42.688;23.404;2022-11-20T01:12:36;5.27;;;4.33;;
18166;SDS011;9208;42.688;23.404;2022-11-20T01:15:02;4.90;;;3.77;;
18166;SDS011;9208;42.688;23.404;2022-11-20T01:17:27;5.13;;;3.93;;
18166;SDS011;9208;42.688;23.404;2022-11-20T01:19:53;5.30;;;3.50;;
18166;SDS011;9208;42.688;23.404;2022-11-20T01:22:18;4.47;;;3.40;;
18166;SDS011;9208;42.688;23.404;2022-11-20T01:24:44;4.60;;;3.30;;
18166;SDS011;9208;42.688;23.404;2022-11-20T01:27:09;3.43;;;2.77;;
18166;SDS011;9208;42.688;23.404;2022-11-20T01:29:34;5.47;;;3.40;;
18166;SDS011;9208;42.688;23.404;2022-11-20T01:32:00;4.03;;;3.63;;
18166;SDS011;9208;42.688;23.404;2022-11-20T01:34:25;4.50;;;2.93;;
18166;SDS011;9208;42.688;23.404;2022-11-20T01:36:51;3.80;;;3.10;;
18166;SDS011;9208;42.688;23.404;2022-11-20T01:39:19;3.87;;;2.93;;
18166;SDS011;9208;42.688;23.404;2022-11-20T01:41:47;6.57;;;3.20;;
18166;SDS011;9208;42.688;23.404;2022-11-20T01:47:38;3.63;;;3.33;;
18166;SDS011;9208;42.688;23.404;2022-11-20T01:50:13;4.27;;;3.10;;
18166;SDS011;9208;42.688;23.404;2022-11-20T01:52:46;3.30;;;2.90;;
18166;SDS011;9208;42.688;23.404;2022-11-20T01:55:16;3.50;;;3.20;;
18166;SDS011;9208;42.688;23.404;2022-11-20T01:57:45;4.47;;;3.23;;
18166;SDS011;9208;42.688;23.404;2022-11-20T02:00:14;5.37;;;3.57;;
18166;SDS011;9208;42.688;23.404;2022-11-20T02:02:42;4.67;;;3.27;;
18166;SDS011;9208;42.688;23.404;2022-11-20T02:07:59;4.63;;;3.40;;
18166;SDS011;9208;42.688;23.404;2022-11-20T02:10:26;4.30;;;3.20;;
18166;SDS011;9208;42.688;23.404;2022-11-20T02:12:53;4.10;;;2.77;;
18166;SDS011;9208;42.688;23.404;2022-11-20T02:15:37;3.60;;;2.53;;
18166;SDS011;9208;42.688;23.404;2022-11-20T02:18:05;3.33;;;2.40;;
18166;SDS011;9208;42.688;23.404;2022-11-20T02:20:32;3.27;;;2.33;;
18166;SDS011;9208;42.688;23.404;2022-11-20T02:22:59;3.60;;;2.47;;
18166;SDS011;9208;42.688;23.404;2022-11-20T02:25:30;2.73;;;2.17;;
18166;SDS011;9208;42.688;23.404;2022-11-20T02:27:57;3.23;;;2.17;;
18166;SDS011;9208;42.688;23.404;2022-11-20T02:30:22;4.10;;;1.93;;
18166;SDS011;9208;42.688;23.404;2022-11-20T02:32:48;2.37;;;2.00;;
18166;SDS011;9208;42.688;23.404;2022-11-20T02:37:49;1.40;;;1.30;;
18166;SDS011;9208;42.688;23.404;2022-11-20T02:40:17;2.30;;;1.13;;
18166;SDS011;9208;42.688;23.404;2022-11-20T02:42:43;2.20;;;1.60;;
18166;SDS011;9208;42.688;23.404;2022-11-20T02:45:09;2.27;;;1.43;;
18166;SDS011;9208;42.688;23.404;2022-11-20T02:47:35;1.60;;;1.27;;
18166;SDS011;9208;42.688;23.404;2022-11-20T02:50:00;1.77;;;1.30;;
18166;SDS011;9208;42.688;23.404;2022-11-20T02:52:26;2.33;;;1.20;;
18166;SDS011;9208;42.688;23.404;2022-11-20T02:54:51;2.27;;;1.40;;
18166;SDS011;9208;42.688;23.404;2022-11-20T02:57:17;2.97;;;1.50;;
18166;SDS011;9208;42.688;23.404;2022-11-20T02:59:43;1.40;;;1.30;;
18166;SDS011;9208;42.688;23.404;2022-11-20T03:02:08;2.13;;;1.40;;
18166;SDS011;9208;42.688;23.404;2022-11-20T03:04:34;2.27;;;1.40;;
18166;SDS011;9208;42.688;23.404;2022-11-20T03:06:59;1.87;;;1.40;;
18166;SDS011;9208;42.688;23.404;2022-11-20T03:09:25;2.20;;;1.40;;
18166;SDS011;9208;42.688;23.404;2022-11-20T03:11:50;5.57;;;2.10;;
18166;SDS011;9208;42.688;23.404;2022-11-20T03:14:16;3.80;;;1.20;;
18166;SDS011;9208;42.688;23.404;2022-11-20T03:16:41;1.10;;;1.00;;
18166;SDS011;9208;42.688;23.404;2022-11-20T03:19:07;1.30;;;1.00;;
18166;SDS011;9208;42.688;23.404;2022-11-20T03:21:33;2.33;;;1.10;;
18166;SDS011;9208;42.688;23.404;2022-11-20T03:23:59;1.37;;;0.80;;
18166;SDS011;9208;42.688;23.404;2022-11-20T03:26:25;1.03;;;0.90;;
18166;SDS011;9208;42.688;23.404;2022-11-20T03:28:56;2.90;;;1.03;;
18166;SDS011;9208;42.688;23.404;2022-11-20T03:31:30;2.30;;;1.23;;
18166;SDS011;9208;42.688;23.404;2022-11-20T03:33:58;1.70;;;1.30;;
18166;SDS011;9208;42.688;23.404;2022-11-20T03:36:23;1.57;;;1.03;;
18166;SDS011;9208;42.688;23.404;2022-11-20T03:38:50;1.10;;;1.00;;
18166;SDS011;9208;42.688;23.404;2022-11-20T03:41:17;1.17;;;0.87;;
18166;SDS011;9208;42.688;23.404;2022-11-20T03:43:52;1.37;;;1.07;;
18166;SDS011;9208;42.688;23.404;2022-11-20T03:46:19;2.63;;;1.07;;
18166;SDS011;9208;42.688;23.404;2022-11-20T03:48:45;1.13;;;0.90;;
18166;SDS011;9208;42.688;23.404;2022-11-20T03:51:12;1.97;;;1.13;;
18166;SDS011;9208;42.688;23.404;2022-11-20T03:53:39;2.60;;;1.00;;
18166;SDS011;9208;42.688;23.404;2022-11-20T03:56:06;1.63;;;0.90;;
18166;SDS011;9208;42.688;23.404;2022-11-20T03:58:33;1.43;;;1.00;;
18166;SDS011;9208;42.688;23.404;2022-11-20T04:01:12;1.03;;;0.80;;
18166;SDS011;9208;42.688;23.404;2022-11-20T04:03:39;1.53;;;1.10;;
18166;SDS011;9208;42.688;23.404;2022-11-20T04:08:36;2.60;;;1.30;;
18166;SDS011;9208;42.688;23.404;2022-11-20T04:11:12;2.30;;;1.00;;
18166;SDS011;9208;42.688;23.404;2022-11-20T04:13:38;1.73;;;0.90;;
18166;SDS011;9208;42.688;23.404;2022-11-20T04:16:05;1.63;;;1.53;;
18166;SDS011;9208;42.688;23.404;2022-11-20T04:18:32;2.37;;;1.10;;
18166;SDS011;9208;42.688;23.404;2022-11-20T04:20:57;1.20;;;1.00;;
18166;SDS011;9208;42.688;23.404;2022-11-20T04:23:23;2.17;;;1.17;;
18166;SDS011;9208;42.688;23.404;2022-11-20T04:25:49;1.30;;;1.20;;
18166;SDS011;9208;42.688;23.404;2022-11-20T04:28:15;1.60;;;1.30;;
18166;SDS011;9208;42.688;23.404;2022-11-20T04:30:40;5.07;;;1.33;;
18166;SDS011;9208;42.688;23.404;2022-11-20T04:33:09;2.30;;;1.00;;
18166;SDS011;9208;42.688;23.404;2022-11-20T04:35:34;2.23;;;1.10;;
18166;SDS011;9208;42.688;23.404;2022-11-20T04:38:00;1.43;;;1.00;;
18166;SDS011;9208;42.688;23.404;2022-11-20T04:40:27;1.57;;;1.00;;
18166;SDS011;9208;42.688;23.404;2022-11-20T04:42:53;2.07;;;1.00;;
18166;SDS011;9208;42.688;23.404;2022-11-20T04:45:19;1.70;;;1.00;;
18166;SDS011;9208;42.688;23.404;2022-11-20T04:47:44;3.07;;;1.33;;
18166;SDS011;9208;42.688;23.404;2022-11-20T04:50:10;2.07;;;1.13;;
18166;SDS011;9208;42.688;23.404;2022-11-20T04:52:36;1.70;;;0.97;;
18166;SDS011;9208;42.688;23.404;2022-11-20T04:55:01;1.60;;;1.10;;
18166;SDS011;9208;42.688;23.404;2022-11-20T04:57:26;1.43;;;0.83;;
18166;SDS011;9208;42.688;23.404;2022-11-20T04:59:52;1.90;;;0.80;;
18166;SDS011;9208;42.688;23.404;2022-11-20T05:02:17;0.93;;;0.63;;
18166;SDS011;9208;42.688;23.404;2022-11-20T05:04:43;2.83;;;1.00;;
18166;SDS011;9208;42.688;23.404;2022-11-20T05:07:08;1.30;;;1.00;;
18166;SDS011;9208;42.688;23.404;2022-11-20T05:09:33;1.40;;;1.20;;
18166;SDS011;9208;42.688;23.404;2022-11-20T05:11:59;1.80;;;1.23;;
18166;SDS011;9208;42.688;23.404;2022-11-20T05:14:24;1.50;;;1.10;;
18166;SDS011;9208;42.688;23.404;2022-11-20T05:16:50;1.17;;;1.03;;
18166;SDS011;9208;42.688;23.404;2022-11-20T05:19:15;2.20;;;0.97;;
18166;SDS011;9208;42.688;23.404;2022-11-20T05:21:41;1.40;;;0.90;;
18166;SDS011;9208;42.688;23.404;2022-11-20T05:24:06;1.93;;;1.00;;
18166;SDS011;9208;42.688;23.404;2022-11-20T05:26:32;1.73;;;1.20;;
18166;SDS011;9208;42.688;23.404;2022-11-20T05:28:57;3.07;;;1.20;;
18166;SDS011;9208;42.688;23.404;2022-11-20T05:31:23;0.83;;;0.80;;
18166;SDS011;9208;42.688;23.404;2022-11-20T05:33:49;1.43;;;0.73;;
18166;SDS011;9208;42.688;23.404;2022-11-20T05:36:15;2.30;;;1.00;;
18166;SDS011;9208;42.688;23.404;2022-11-20T05:38:42;2.63;;;1.10;;
18166;SDS011;9208;42.688;23.404;2022-11-20T05:43:38;3.13;;;0.90;;
18166;SDS011;9208;42.688;23.404;2022-11-20T05:46:06;2.20;;;1.20;;
18166;SDS011;9208;42.688;23.404;2022-11-20T05:48:33;1.50;;;1.20;;
18166;SDS011;9208;42.688;23.404;2022-11-20T05:51:00;2.03;;;1.00;;
18166;SDS011;9208;42.688;23.404;2022-11-20T05:53:26;1.53;;;1.03;;
18166;SDS011;9208;42.688;23.404;2022-11-20T05:56:02;1.27;;;1.10;;
18166;SDS011;9208;42.688;23.404;2022-11-20T05:58:29;3.70;;;1.10;;
18166;SDS011;9208;42.688;23.404;2022-11-20T06:01:02;2.23;;;1.13;;
18166;SDS011;9208;42.688;23.404;2022-11-20T06:03:33;1.87;;;1.20;;
18166;SDS011;9208;42.688;23.404;2022-11-20T06:05:59;1.03;;;0.93;;
18166;SDS011;9208;42.688;23.404;2022-11-20T06:08:25;1.47;;;0.93;;
18166;SDS011;9208;42.688;23.404;2022-11-20T06:10:51;1.60;;;0.87;;
18166;SDS011;9208;42.688;23.404;2022-11-20T06:13:16;3.00;;;1.13;;
18166;SDS011;9208;42.688;23.404;2022-11-20T06:15:42;1.67;;;1.20;;
18166;SDS011;9208;42.688;23.404;2022-11-20T06:18:12;8.83;;;2.00;;
18166;SDS011;9208;42.688;23.404;2022-11-20T06:20:38;2.97;;;1.40;;
18166;SDS011;9208;42.688;23.404;2022-11-20T06:23:03;1.93;;;1.00;;
18166;SDS011;9208;42.688;23.404;2022-11-20T06:25:29;4.77;;;1.40;;
18166;SDS011;9208;42.688;23.404;2022-11-20T06:27:54;2.40;;;1.27;;
18166;SDS011;9208;42.688;23.404;2022-11-20T06:30:19;1.03;;;0.90;;
18166;SDS011;9208;42.688;23.404;2022-11-20T06:32:48;4.03;;;1.40;;
18166;SDS011;9208;42.688;23.404;2022-11-20T06:35:13;2.23;;;1.13;;
18166;SDS011;9208;42.688;23.404;2022-11-20T06:37:39;3.87;;;1.43;;
18166;SDS011;9208;42.688;23.404;2022-11-20T06:40:04;1.73;;;1.00;;
18166;SDS011;9208;42.688;23.404;2022-11-20T06:42:30;1.60;;;0.90;;
18166;SDS011;9208;42.688;23.404;2022-11-20T06:44:56;3.57;;;1.30;;
18166;SDS011;9208;42.688;23.404;2022-11-20T06:47:22;4.97;;;1.40;;
18166;SDS011;9208;42.688;23.404;2022-11-20T06:49:47;7.83;;;1.63;;
18166;SDS011;9208;42.688;23.404;2022-11-20T06:52:12;9.33;;;2.33;;
18166;SDS011;9208;42.688;23.404;2022-11-20T06:54:38;3.03;;;1.40;;
18166;SDS011;9208;42.688;23.404;2022-11-20T06:57:03;6.17;;;1.70;;
18166;SDS011;9208;42.688;23.404;2022-11-20T06:59:29;4.50;;;1.77;;
18166;SDS011;9208;42.688;23.404;2022-11-20T07:01:54;2.40;;;1.23;;
18166;SDS011;9208;42.688;23.404;2022-11-20T07:04:19;3.33;;;1.40;;
18166;SDS011;9208;42.688;23.404;2022-11-20T07:06:45;1.60;;;0.97;;
18166;SDS011;9208;42.688;23.404;2022-11-20T07:09:10;3.57;;;1.50;;
18166;SDS011;9208;42.688;23.404;2022-11-20T07:11:35;4.50;;;1.17;;
18166;SDS011;9208;42.688;23.404;2022-11-20T07:14:01;2.67;;;1.33;;
18166;SDS011;9208;42.688;23.404;2022-11-20T07:16:27;2.67;;;1.30;;
18166;SDS011;9208;42.688;23.404;2022-11-20T07:18:52;2.53;;;0.97;;
18166;SDS011;9208;42.688;23.404;2022-11-20T07:21:18;3.37;;;1.40;;
18166;SDS011;9208;42.688;23.404;2022-11-20T07:23:43;2.53;;;0.90;;
18166;SDS011;9208;42.688;23.404;2022-11-20T07:26:09;2.67;;;1.20;;
18166;SDS011;9208;42.688;23.404;2022-11-20T07:28:36;2.37;;;1.17;;
18166;SDS011;9208;42.688;23.404;2022-11-20T07:31:02;3.13;;;1.20;;
18166;SDS011;9208;42.688;23.404;2022-11-20T07:33:28;1.57;;;0.80;;
18166;SDS011;9208;42.688;23.404;2022-11-20T07:35:53;3.00;;;1.00;;
18166;SDS011;9208;42.688;23.404;2022-11-20T07:38:19;1.93;;;1.23;;
18166;SDS011;9208;42.688;23.404;2022-11-20T07:40:44;1.90;;;1.20;;
18166;SDS011;9208;42.688;23.404;2022-11-20T07:43:10;3.23;;;1.23;;
18166;SDS011;9208;42.688;23.404;2022-11-20T07:45:35;1.40;;;1.30;;
18166;SDS011;9208;42.688;23.404;2022-11-20T07:48:00;2.70;;;1.47;;
18166;SDS011;9208;42.688;23.404;2022-11-20T07:50:26;5.27;;;1.40;;
18166;SDS011;9208;42.688;23.404;2022-11-20T07:52:51;3.47;;;1.30;;
18166;SDS011;9208;42.688;23.404;2022-11-20T07:55:17;2.53;;;1.17;;
18166;SDS011;9208;42.688;23.404;2022-11-20T07:57:43;5.27;;;1.77;;
18166;SDS011;9208;42.688;23.404;2022-11-20T08:00:09;4.53;;;1.60;;
18166;SDS011;9208;42.688;23.404;2022-11-20T08:02:39;3.17;;;1.20;;
18166;SDS011;9208;42.688;23.404;2022-11-20T08:05:08;2.57;;;1.30;;
18166;SDS011;9208;42.688;23.404;2022-11-20T08:07:37;4.17;;;1.40;;
18166;SDS011;9208;42.688;23.404;2022-11-20T08:10:04;2.93;;;1.20;;
18166;SDS011;9208;42.688;23.404;2022-11-20T08:12:30;2.80;;;1.37;;
18166;SDS011;9208;42.688;23.404;2022-11-20T08:15:16;4.43;;;1.40;;
18166;SDS011;9208;42.688;23.404;2022-11-20T08:17:42;2.03;;;1.10;;
18166;SDS011;9208;42.688;23.404;2022-11-20T08:20:15;3.23;;;1.13;;
18166;SDS011;9208;42.688;23.404;2022-11-20T08:22:40;3.23;;;1.40;;
18166;SDS011;9208;42.688;23.404;2022-11-20T08:25:06;3.03;;;1.40;;
18166;SDS011;9208;42.688;23.404;2022-11-20T08:27:32;2.63;;;1.10;;
18166;SDS011;9208;42.688;23.404;2022-11-20T08:29:58;2.90;;;1.13;;
18166;SDS011;9208;42.688;23.404;2022-11-20T08:32:23;3.50;;;1.13;;
18166;SDS011;9208;42.688;23.404;2022-11-20T08:34:49;5.20;;;1.47;;
18166;SDS011;9208;42.688;23.404;2022-11-20T08:37:14;4.40;;;1.60;;
18166;SDS011;9208;42.688;23.404;2022-11-20T08:39:39;3.60;;;1.67;;
18166;SDS011;9208;42.688;23.404;2022-11-20T08:42:08;4.70;;;1.30;;
18166;SDS011;9208;42.688;23.404;2022-11-20T08:44:33;4.30;;;1.40;;
18166;SDS011;9208;42.688;23.404;2022-11-20T08:47:01;5.03;;;1.43;;
18166;SDS011;9208;42.688;23.404;2022-11-20T08:49:27;4.17;;;1.30;;
18166;SDS011;9208;42.688;23.404;2022-11-20T08:51:52;4.77;;;1.30;;
18166;SDS011;9208;42.688;23.404;2022-11-20T08:54:20;2.37;;;1.13;;
18166;SDS011;9208;42.688;23.404;2022-11-20T08:56:47;4.53;;;1.37;;
18166;SDS011;9208;42.688;23.404;2022-11-20T08:59:12;4.90;;;1.50;;
18166;SDS011;9208;42.688;23.404;2022-11-20T09:01:38;4.87;;;1.40;;
18166;SDS011;9208;42.688;23.404;2022-11-20T09:04:04;2.93;;;2.00;;
18166;SDS011;9208;42.688;23.404;2022-11-20T09:06:29;6.43;;;2.40;;
18166;SDS011;9208;42.688;23.404;2022-11-20T09:08:55;5.27;;;2.27;;
18166;SDS011;9208;42.688;23.404;2022-11-20T09:11:21;4.90;;;2.47;;
18166;SDS011;9208;42.688;23.404;2022-11-20T09:13:47;6.30;;;2.83;;
18166;SDS011;9208;42.688;23.404;2022-11-20T09:16:13;6.17;;;3.60;;
18166;SDS011;9208;42.688;23.404;2022-11-20T09:18:38;5.80;;;3.70;;
18166;SDS011;9208;42.688;23.404;2022-11-20T09:21:05;7.23;;;3.47;;
18166;SDS011;9208;42.688;23.404;2022-11-20T09:23:32;7.07;;;3.57;;
18166;SDS011;9208;42.688;23.404;2022-11-20T09:26:02;4.93;;;2.83;;
18166;SDS011;9208;42.688;23.404;2022-11-20T09:28:29;6.20;;;3.43;;
18166;SDS011;9208;42.688;23.404;2022-11-20T09:30:54;7.57;;;3.30;;
18166;SDS011;9208;42.688;23.404;2022-11-20T09:33:20;7.67;;;4.20;;
18166;SDS011;9208;42.688;23.404;2022-11-20T09:35:45;6.90;;;4.70;;
18166;SDS011;9208;42.688;23.404;2022-11-20T09:38:12;14.07;;;6.97;;
18166;SDS011;9208;42.688;23.404;2022-11-20T09:40:40;4.13;;;2.83;;
18166;SDS011;9208;42.688;23.404;2022-11-20T09:51:56;4.63;;;2.50;;
18166;SDS011;9208;42.688;23.404;2022-11-20T09:54:34;3.93;;;3.20;;
18166;SDS011;9208;42.688;23.404;2022-11-20T09:57:07;5.73;;;3.13;;
18166;SDS011;9208;42.688;23.404;2022-11-20T09:59:41;5.03;;;3.13;;
18166;SDS011;9208;42.688;23.404;2022-11-20T10:02:30;3.70;;;2.97;;
18166;SDS011;9208;42.688;23.404;2022-11-20T10:07:48;4.57;;;2.00;;
18166;SDS011;9208;42.688;23.404;2022-11-20T10:30:18;8.37;;;2.97;;
18166;SDS011;9208;42.688;23.404;2022-11-20T10:32:47;6.23;;;2.83;;
18166;SDS011;9208;42.688;23.404;2022-11-20T10:35:25;5.53;;;2.77;;
18166;SDS011;9208;42.688;23.404;2022-11-20T10:37:58;6.20;;;2.60;;
18166;SDS011;9208;42.688;23.404;2022-11-20T10:40:29;6.20;;;2.50;;
18166;SDS011;9208;42.688;23.404;2022-11-20T10:43:33;5.50;;;2.63;;
18166;SDS011;9208;42.688;23.404;2022-11-20T10:46:00;4.73;;;2.40;;
18166;SDS011;9208;42.688;23.404;2022-11-20T10:48:30;4.97;;;2.23;;
18166;SDS011;9208;42.688;23.404;2022-11-20T10:51:07;7.00;;;4.10;;
18166;SDS011;9208;42.688;23.404;2022-11-20T10:53:54;8.07;;;5.10;;
18166;SDS011;9208;42.688;23.404;2022-11-20T10:56:40;8.93;;;5.57;;
18166;SDS011;9208;42.688;23.404;2022-11-20T11:01:51;4.90;;;2.70;;
18166;SDS011;9208;42.688;23.404;2022-11-20T11:09:38;3.83;;;3.03;;
18166;SDS011;9208;42.688;23.404;2022-11-20T11:12:08;5.83;;;2.73;;
18166;SDS011;9208;42.688;23.404;2022-11-20T11:14:44;4.63;;;2.93;;
18166;SDS011;9208;42.688;23.404;2022-11-20T11:17:28;4.33;;;2.90;;
18166;SDS011;9208;42.688;23.404;2022-11-20T11:20:02;6.63;;;3.43;;
18166;SDS011;9208;42.688;23.404;2022-11-20T11:22:44;5.90;;;3.57;;
18166;SDS011;9208;42.688;23.404;2022-11-20T11:25:25;8.70;;;4.43;;
18166;SDS011;9208;42.688;23.404;2022-11-20T11:27:56;7.20;;;3.40;;
18166;SDS011;9208;42.688;23.404;2022-11-20T11:30:24;3.87;;;1.73;;
18166;SDS011;9208;42.688;23.404;2022-11-20T11:33:01;2.13;;;1.10;;
18166;SDS011;9208;42.688;23.404;2022-11-20T11:35:31;1.67;;;1.20;;
18166;SDS011;9208;42.688;23.404;2022-11-20T11:38:05;2.60;;;1.20;;
18166;SDS011;9208;42.688;23.404;2022-11-20T11:40:33;2.00;;;1.07;;
18166;SDS011;9208;42.688;23.404;2022-11-20T11:43:07;3.97;;;1.40;;
18166;SDS011;9208;42.688;23.404;2022-11-20T11:46:02;1.20;;;1.07;;
18166;SDS011;9208;42.688;23.404;2022-11-20T11:51:39;1.43;;;0.80;;
18166;SDS011;9208;42.688;23.404;2022-11-20T12:02:23;2.80;;;1.20;;
18166;SDS011;9208;42.688;23.404;2022-11-20T12:08:18;3.10;;;1.20;;
18166;SDS011;9208;42.688;23.404;2022-11-20T12:11:04;3.13;;;1.30;;
18166;SDS011;9208;42.688;23.404;2022-11-20T12:16:02;5.83;;;1.97;;
18166;SDS011;9208;42.688;23.404;2022-11-20T12:18:29;2.37;;;1.17;;
18166;SDS011;9208;42.688;23.404;2022-11-20T12:26:43;1.20;;;0.87;;
18166;SDS011;9208;42.688;23.404;2022-11-20T12:32:04;1.47;;;0.70;;
18166;SDS011;9208;42.688;23.404;2022-11-20T12:38:00;0.80;;;0.50;;
18166;SDS011;9208;42.688;23.404;2022-11-20T12:40:18;0.70;;;0.40;;
18166;SDS011;9208;42.688;23.404;2022-11-20T12:46:18;1.97;;;0.53;;
18166;SDS011;9208;42.688;23.404;2022-11-20T12:52:33;1.33;;;1.00;;
18166;SDS011;9208;42.688;23.404;2022-11-20T13:00:19;1.60;;;1.07;;
18166;SDS011;9208;42.688;23.404;2022-11-20T13:05:52;1.23;;;1.13;;
18166;SDS011;9208;42.688;23.404;2022-11-20T13:08:36;1.90;;;1.00;;
18166;SDS011;9208;42.688;23.404;2022-11-20T13:11:20;2.73;;;1.33;;
18166;SDS011;9208;42.688;23.404;2022-11-20T13:17:02;3.03;;;1.50;;
18166;SDS011;9208;42.688;23.404;2022-11-20T13:19:30;2.73;;;1.50;;
18166;SDS011;9208;42.688;23.404;2022-11-20T13:21:56;3.63;;;2.03;;
18166;SDS011;9208;42.688;23.404;2022-11-20T13:29:39;5.87;;;2.97;;
18166;SDS011;9208;42.688;23.404;2022-11-20T13:34:55;3.50;;;2.30;;
18166;SDS011;9208;42.688;23.404;2022-11-20T13:37:24;3.93;;;2.03;;
18166;SDS011;9208;42.688;23.404;2022-11-20T13:40:04;2.13;;;1.80;;
18166;SDS011;9208;42.688;23.404;2022-11-20T13:42:33;7.90;;;2.47;;
18166;SDS011;9208;42.688;23.404;2022-11-20T13:45:08;3.73;;;2.27;;
18166;SDS011;9208;42.688;23.404;2022-11-20T13:47:36;3.77;;;2.20;;
18166;SDS011;9208;42.688;23.404;2022-11-20T13:50:02;3.00;;;1.90;;
18166;SDS011;9208;42.688;23.404;2022-11-20T13:58:15;2.93;;;1.73;;
18166;SDS011;9208;42.688;23.404;2022-11-20T14:00:52;3.40;;;2.00;;
18166;SDS011;9208;42.688;23.404;2022-11-20T14:03:22;3.70;;;2.07;;
18166;SDS011;9208;42.688;23.404;2022-11-20T14:05:56;5.87;;;2.27;;
18166;SDS011;9208;42.688;23.404;2022-11-20T14:08:45;4.60;;;2.67;;
18166;SDS011;9208;42.688;23.404;2022-11-20T14:11:14;3.77;;;2.10;;
18166;SDS011;9208;42.688;23.404;2022-11-20T14:16:45;2.53;;;1.97;;
18166;SDS011;9208;42.688;23.404;2022-11-20T14:21:52;3.40;;;2.23;;
18166;SDS011;9208;42.688;23.404;2022-11-20T14:24:20;3.40;;;2.10;;
18166;SDS011;9208;42.688;23.404;2022-11-20T14:26:47;3.30;;;2.10;;
18166;SDS011;9208;42.688;23.404;2022-11-20T14:29:15;3.03;;;2.20;;
18166;SDS011;9208;42.688;23.404;2022-11-20T14:31:44;2.90;;;2.33;;
18166;SDS011;9208;42.688;23.404;2022-11-20T14:34:15;3.57;;;2.27;;
18166;SDS011;9208;42.688;23.404;2022-11-20T14:36:45;4.63;;;3.00;;
18166;SDS011;9208;42.688;23.404;2022-11-20T14:39:12;2.57;;;2.10;;
18166;SDS011;9208;42.688;23.404;2022-11-20T14:41:51;4.93;;;2.57;;
18166;SDS011;9208;42.688;23.404;2022-11-20T14:44:20;4.77;;;2.73;;
18166;SDS011;9208;42.688;23.404;2022-11-20T14:46:49;4.57;;;2.60;;
18166;SDS011;9208;42.688;23.404;2022-11-20T14:49:17;4.53;;;3.30;;
18166;SDS011;9208;42.688;23.404;2022-11-20T14:51:43;8.27;;;5.47;;
18166;SDS011;9208;42.688;23.404;2022-11-20T14:56:40;12.53;;;8.53;;
18166;SDS011;9208;42.688;23.404;2022-11-20T14:59:07;11.43;;;7.90;;
18166;SDS011;9208;42.688;23.404;2022-11-20T15:01:34;8.33;;;7.03;;
18166;SDS011;9208;42.688;23.404;2022-11-20T15:04:09;9.67;;;6.73;;
18166;SDS011;9208;42.688;23.404;2022-11-20T15:06:36;6.90;;;4.60;;
18166;SDS011;9208;42.688;23.404;2022-11-20T15:09:03;7.97;;;4.13;;
18166;SDS011;9208;42.688;23.404;2022-11-20T15:11:33;6.80;;;3.80;;
18166;SDS011;9208;42.688;23.404;2022-11-20T15:14:04;8.33;;;4.87;;
18166;SDS011;9208;42.688;23.404;2022-11-20T15:16:31;6.47;;;4.20;;
18166;SDS011;9208;42.688;23.404;2022-11-20T15:18:58;5.60;;;4.27;;
18166;SDS011;9208;42.688;23.404;2022-11-20T15:21:24;7.37;;;4.67;;
18166;SDS011;9208;42.688;23.404;2022-11-20T15:23:50;8.67;;;4.67;;
18166;SDS011;9208;42.688;23.404;2022-11-20T15:26:21;9.37;;;4.07;;
18166;SDS011;9208;42.688;23.404;2022-11-20T15:28:51;5.50;;;3.90;;
18166;SDS011;9208;42.688;23.404;2022-11-20T15:31:18;13.27;;;7.77;;
18166;SDS011;9208;42.688;23.404;2022-11-20T15:33:45;22.97;;;19.20;;
18166;SDS011;9208;42.688;23.404;2022-11-20T15:36:11;30.53;;;23.53;;
18166;SDS011;9208;42.688;23.404;2022-11-20T15:38:37;33.60;;;25.53;;
18166;SDS011;9208;42.688;23.404;2022-11-20T15:41:02;32.10;;;26.23;;
18166;SDS011;9208;42.688;23.404;2022-11-20T15:43:28;33.50;;;25.97;;
18166;SDS011;9208;42.688;23.404;2022-11-20T15:45:55;35.87;;;27.47;;
18166;SDS011;9208;42.688;23.404;2022-11-20T15:48:27;28.00;;;20.20;;
18166;SDS011;9208;42.688;23.404;2022-11-20T15:51:38;19.63;;;13.57;;
18166;SDS011;9208;42.688;23.404;2022-11-20T15:53:47;6.73;;;4.90;;
18166;SDS011;9208;42.688;23.404;2022-11-20T15:56:12;6.43;;;4.87;;
18166;SDS011;9208;42.688;23.404;2022-11-20T15:58:39;6.30;;;4.50;;
18166;SDS011;9208;42.688;23.404;2022-11-20T16:01:05;6.43;;;3.50;;
18166;SDS011;9208;42.688;23.404;2022-11-20T16:03:34;4.50;;;2.90;;
18166;SDS011;9208;42.688;23.404;2022-11-20T16:06:00;3.13;;;1.80;;
18166;SDS011;9208;42.688;23.404;2022-11-20T16:08:25;2.53;;;1.50;;
18166;SDS011;9208;42.688;23.404;2022-11-20T16:10:50;1.80;;;1.30;;
18166;SDS011;9208;42.688;23.404;2022-11-20T16:13:16;2.83;;;2.27;;
18166;SDS011;9208;42.688;23.404;2022-11-20T16:16:05;2.90;;;2.10;;
18166;SDS011;9208;42.688;23.404;2022-11-20T16:18:53;3.83;;;2.00;;
18166;SDS011;9208;42.688;23.404;2022-11-20T16:21:19;2.13;;;1.33;;
18166;SDS011;9208;42.688;23.404;2022-11-20T16:23:45;2.10;;;1.47;;
18166;SDS011;9208;42.688;23.404;2022-11-20T16:26:11;2.40;;;1.33;;
18166;SDS011;9208;42.688;23.404;2022-11-20T16:28:41;2.07;;;1.20;;
18166;SDS011;9208;42.688;23.404;2022-11-20T16:31:11;2.90;;;1.30;;
18166;SDS011;9208;42.688;23.404;2022-11-20T16:33:38;2.23;;;1.23;;
18166;SDS011;9208;42.688;23.404;2022-11-20T16:36:11;7.73;;;1.83;;
18166;SDS011;9208;42.688;23.404;2022-11-20T16:38:38;2.70;;;1.17;;
18166;SDS011;9208;42.688;23.404;2022-11-20T16:41:04;1.97;;;1.33;;
18166;SDS011;9208;42.688;23.404;2022-11-20T16:43:30;3.70;;;1.57;;
18166;SDS011;9208;42.688;23.404;2022-11-20T16:45:56;4.90;;;1.60;;
18166;SDS011;9208;42.688;23.404;2022-11-20T16:48:21;2.20;;;1.03;;
18166;SDS011;9208;42.688;23.404;2022-11-20T16:50:48;5.73;;;1.60;;
18166;SDS011;9208;42.688;23.404;2022-11-20T16:53:18;2.20;;;1.20;;
18166;SDS011;9208;42.688;23.404;2022-11-20T16:55:45;1.70;;;1.20;;
18166;SDS011;9208;42.688;23.404;2022-11-20T16:58:10;5.73;;;1.73;;